sensor_id;sensor_type;location;lat;lon;timestamp;pressure;altitude;pressure_sealevel;temperature;humidity
42859;BME280;28505;56.970;40.998;2023-08-08T00:03:19;99727.75;;;17.35;100.00
42859;BME280;28505;56.970;40.998;2023-08-08T00:08:42;99727.75;;;17.35;100.00
42859;BME280;28505;56.970;40.998;2023-08-08T00:14:03;99714.56;;;17.49;100.00
42859;BME280;28505;56.970;40.998;2023-08-08T00:19:26;99711.66;;;17.30;100.00
42859;BME280;28505;56.970;40.998;2023-08-08T00:24:48;99717.38;;;17.53;100.00
42859;BME280;28505;56.970;40.998;2023-08-08T00:30:11;99713.41;;;17.50;100.00
42859;BME280;28505;56.970;40.998;2023-08-08T00:35:34;99707.56;;;17.24;100.00
42859;BME280;28505;56.970;40.998;2023-08-08T00:40:57;99711.53;;;17.26;100.00
42859;BME280;28505;56.970;40.998;2023-08-08T00:46:21;99701.94;;;16.92;100.00
42859;BME280;28505;56.970;40.998;2023-08-08T00:51:44;99709.06;;;16.97;100.00
42859;BME280;28505;56.970;40.998;2023-08-08T00:57:07;99704.44;;;16.85;100.00
42859;BME280;28505;56.970;40.998;2023-08-08T01:02:29;99705.75;;;16.67;100.00
42859;BME280;28505;56.970;40.998;2023-08-08T01:13:20;99704.81;;;16.38;100.00
42859;BME280;28505;56.970;40.998;2023-08-08T01:18:44;99705.63;;;16.51;100.00
42859;BME280;28505;56.970;40.998;2023-08-08T01:24:21;99709.06;;;16.60;100.00
42859;BME280;28505;56.970;40.998;2023-08-08T01:29:44;99700.69;;;16.65;100.00
42859;BME280;28505;56.970;40.998;2023-08-08T01:35:08;99705.63;;;16.51;100.00
42859;BME280;28505;56.970;40.998;2023-08-08T01:40:31;99715.28;;;16.48;100.00
42859;BME280;28505;56.970;40.998;2023-08-08T01:45:55;99710.41;;;16.54;100.00
42859;BME280;28505;56.970;40.998;2023-08-08T01:51:17;99706.03;;;16.86;100.00
42859;BME280;28505;56.970;40.998;2023-08-08T01:56:41;99701.81;;;17.01;100.00
42859;BME280;28505;56.970;40.998;2023-08-08T02:02:03;99698.78;;;16.78;100.00
42859;BME280;28505;56.970;40.998;2023-08-08T02:07:25;99697.97;;;17.02;100.00
42859;BME280;28505;56.970;40.998;2023-08-08T02:12:47;99698.53;;;17.07;100.00
42859;BME280;28505;56.970;40.998;2023-08-08T02:18:09;99704.78;;;17.48;100.00
42859;BME280;28505;56.970;40.998;2023-08-08T02:23:53;99710.97;;;17.33;100.00
42859;BME280;28505;56.970;40.998;2023-08-08T02:29:15;99714.75;;;16.92;100.00
42859;BME280;28505;56.970;40.998;2023-08-08T02:34:37;99708.06;;;17.01;100.00
42859;BME280;28505;56.970;40.998;2023-08-08T02:40:00;99705.06;;;17.31;100.00
42859;BME280;28505;56.970;40.998;2023-08-08T02:45:23;99702.22;;;17.27;100.00
42859;BME280;28505;56.970;40.998;2023-08-08T02:50:46;99702.66;;;17.70;100.00
42859;BME280;28505;56.970;40.998;2023-08-08T02:56:09;99697.03;;;17.91;100.00
42859;BME280;28505;56.970;40.998;2023-08-08T03:01:34;99701.66;;;18.18;100.00
42859;BME280;28505;56.970;40.998;2023-08-08T03:07:08;99706.78;;;18.36;100.00
42859;BME280;28505;56.970;40.998;2023-08-08T03:12:31;99704.13;;;18.71;100.00
42859;BME280;28505;56.970;40.998;2023-08-08T03:17:53;99704.78;;;18.80;100.00
42859;BME280;28505;56.970;40.998;2023-08-08T03:23:16;99707.66;;;19.03;100.00
42859;BME280;28505;56.970;40.998;2023-08-08T03:28:39;99707.66;;;19.23;100.00
42859;BME280;28505;56.970;40.998;2023-08-08T03:34:02;99710.00;;;19.40;100.00
42859;BME280;28505;56.970;40.998;2023-08-08T03:39:26;99696.19;;;19.72;100.00
42859;BME280;28505;56.970;40.998;2023-08-08T03:44:49;99720.31;;;20.05;100.00
42859;BME280;28505;56.970;40.998;2023-08-08T03:50:11;99709.22;;;20.21;100.00
42859;BME280;28505;56.970;40.998;2023-08-08T03:55:33;99714.75;;;20.44;100.00
42859;BME280;28505;56.970;40.998;2023-08-08T04:00:57;99700.88;;;20.56;100.00
42859;BME280;28505;56.970;40.998;2023-08-08T04:06:18;99710.66;;;20.80;100.00
42859;BME280;28505;56.970;40.998;2023-08-08T04:11:41;99707.69;;;20.92;100.00
42859;BME280;28505;56.970;40.998;2023-08-08T04:17:03;99704.78;;;21.08;100.00
42859;BME280;28505;56.970;40.998;2023-08-08T04:22:26;99699.34;;;21.38;100.00
42859;BME280;28505;56.970;40.998;2023-08-08T04:27:48;99688.66;;;21.97;100.00
42859;BME280;28505;56.970;40.998;2023-08-08T04:33:10;99690.78;;;22.11;100.00
42859;BME280;28505;56.970;40.998;2023-08-08T04:38:32;99690.09;;;22.65;99.07
42859;BME280;28505;56.970;40.998;2023-08-08T04:43:54;99684.38;;;22.92;92.33
42859;BME280;28505;56.970;40.998;2023-08-08T04:49:16;99688.94;;;23.25;88.19
42859;BME280;28505;56.970;40.998;2023-08-08T04:54:39;99696.03;;;23.33;88.31
42859;BME280;28505;56.970;40.998;2023-08-08T05:00:01;99685.16;;;23.58;90.26
42859;BME280;28505;56.970;40.998;2023-08-08T05:05:26;99676.59;;;23.81;84.61
42859;BME280;28505;56.970;40.998;2023-08-08T05:10:48;99680.19;;;24.25;81.82
42859;BME280;28505;56.970;40.998;2023-08-08T05:16:11;99676.22;;;25.01;75.63
42859;BME280;28505;56.970;40.998;2023-08-08T05:21:33;99672.75;;;24.61;71.14
42859;BME280;28505;56.970;40.998;2023-08-08T05:26:56;99668.63;;;26.14;67.79
42859;BME280;28505;56.970;40.998;2023-08-08T05:32:18;99668.78;;;25.97;68.35
42859;BME280;28505;56.970;40.998;2023-08-08T05:37:40;99664.63;;;26.26;66.08
42859;BME280;28505;56.970;40.998;2023-08-08T05:43:03;99656.75;;;26.70;65.30
42859;BME280;28505;56.970;40.998;2023-08-08T05:48:25;99664.81;;;26.91;62.77
42859;BME280;28505;56.970;40.998;2023-08-08T05:53:47;99664.38;;;26.96;62.31
42859;BME280;28505;56.970;40.998;2023-08-08T05:59:09;99654.38;;;27.44;60.69
42859;BME280;28505;56.970;40.998;2023-08-08T06:04:32;99654.59;;;27.26;60.19
42859;BME280;28505;56.970;40.998;2023-08-08T06:09:53;99656.00;;;27.99;59.98
42859;BME280;28505;56.970;40.998;2023-08-08T06:15:16;99660.03;;;27.94;58.69
42859;BME280;28505;56.970;40.998;2023-08-08T06:20:38;99649.44;;;28.40;57.66
42859;BME280;28505;56.970;40.998;2023-08-08T06:26:01;99643.44;;;28.45;57.89
42859;BME280;28505;56.970;40.998;2023-08-08T06:31:23;99638.88;;;28.55;55.02
42859;BME280;28505;56.970;40.998;2023-08-08T06:36:45;99634.63;;;27.99;56.02
42859;BME280;28505;56.970;40.998;2023-08-08T06:42:08;99633.75;;;28.53;56.25
42859;BME280;28505;56.970;40.998;2023-08-08T06:47:41;99625.84;;;28.75;56.37
42859;BME280;28505;56.970;40.998;2023-08-08T06:53:03;99626.53;;;28.12;53.82
42859;BME280;28505;56.970;40.998;2023-08-08T06:58:25;99625.00;;;28.31;53.61
42859;BME280;28505;56.970;40.998;2023-08-08T07:03:47;99634.22;;;29.15;53.75
42859;BME280;28505;56.970;40.998;2023-08-08T07:09:10;99631.63;;;28.37;52.85
42859;BME280;28505;56.970;40.998;2023-08-08T07:14:32;99622.94;;;28.82;53.41
42859;BME280;28505;56.970;40.998;2023-08-08T07:19:54;99630.63;;;28.75;53.71
42859;BME280;28505;56.970;40.998;2023-08-08T07:25:18;99631.72;;;28.77;53.28
42859;BME280;28505;56.970;40.998;2023-08-08T07:30:40;99623.19;;;29.11;53.00
42859;BME280;28505;56.970;40.998;2023-08-08T07:36:02;99618.78;;;29.14;51.71
42859;BME280;28505;56.970;40.998;2023-08-08T07:41:25;99612.00;;;29.15;52.02
42859;BME280;28505;56.970;40.998;2023-08-08T07:46:47;99632.47;;;28.81;51.85
42859;BME280;28505;56.970;40.998;2023-08-08T07:52:10;99627.13;;;28.90;51.07
42859;BME280;28505;56.970;40.998;2023-08-08T07:57:32;99619.69;;;28.64;51.54
42859;BME280;28505;56.970;40.998;2023-08-08T08:02:59;99616.91;;;29.27;50.73
42859;BME280;28505;56.970;40.998;2023-08-08T08:08:22;99615.16;;;29.17;51.81
42859;BME280;28505;56.970;40.998;2023-08-08T08:13:46;99620.94;;;29.43;50.43
42859;BME280;28505;56.970;40.998;2023-08-08T08:19:08;99608.00;;;28.96;50.84
42859;BME280;28505;56.970;40.998;2023-08-08T08:24:31;99607.09;;;29.03;50.97
42859;BME280;28505;56.970;40.998;2023-08-08T08:29:53;99596.44;;;28.58;49.36
42859;BME280;28505;56.970;40.998;2023-08-08T08:35:15;99607.44;;;28.85;48.33
42859;BME280;28505;56.970;40.998;2023-08-08T08:40:40;99607.94;;;29.20;48.31
42859;BME280;28505;56.970;40.998;2023-08-08T08:46:03;99599.41;;;29.30;48.81
42859;BME280;28505;56.970;40.998;2023-08-08T08:51:27;99588.03;;;29.61;48.36
42859;BME280;28505;56.970;40.998;2023-08-08T08:56:49;99588.81;;;29.42;50.73
42859;BME280;28505;56.970;40.998;2023-08-08T09:02:12;99581.16;;;29.29;49.53
42859;BME280;28505;56.970;40.998;2023-08-08T09:07:37;99582.94;;;29.00;48.35
42859;BME280;28505;56.970;40.998;2023-08-08T09:13:01;99587.66;;;29.03;49.75
42859;BME280;28505;56.970;40.998;2023-08-08T09:18:24;99577.22;;;29.10;47.89
42859;BME280;28505;56.970;40.998;2023-08-08T09:23:47;99580.25;;;29.16;48.10
42859;BME280;28505;56.970;40.998;2023-08-08T09:29:11;99586.88;;;28.82;49.24
42859;BME280;28505;56.970;40.998;2023-08-08T09:34:35;99589.09;;;29.11;48.90
42859;BME280;28505;56.970;40.998;2023-08-08T09:39:58;99578.75;;;29.31;49.64
42859;BME280;28505;56.970;40.998;2023-08-08T09:45:22;99569.03;;;29.03;48.27
42859;BME280;28505;56.970;40.998;2023-08-08T09:50:48;99569.69;;;28.87;47.87
42859;BME280;28505;56.970;40.998;2023-08-08T09:56:14;99553.94;;;28.84;49.41
42859;BME280;28505;56.970;40.998;2023-08-08T10:01:40;99557.34;;;28.72;48.39
42859;BME280;28505;56.970;40.998;2023-08-08T10:07:04;99543.41;;;28.56;49.32
42859;BME280;28505;56.970;40.998;2023-08-08T10:12:52;99538.56;;;28.80;47.87
42859;BME280;28505;56.970;40.998;2023-08-08T10:18:14;99545.31;;;28.79;48.88
42859;BME280;28505;56.970;40.998;2023-08-08T10:23:37;99543.38;;;28.96;47.75
42859;BME280;28505;56.970;40.998;2023-08-08T10:29:01;99538.63;;;29.16;47.49
42859;BME280;28505;56.970;40.998;2023-08-08T10:34:36;99539.91;;;28.91;48.25
42859;BME280;28505;56.970;40.998;2023-08-08T10:40:00;99534.09;;;29.06;47.96
42859;BME280;28505;56.970;40.998;2023-08-08T10:45:29;99541.34;;;28.60;47.79
42859;BME280;28505;56.970;40.998;2023-08-08T10:50:57;99540.25;;;28.93;47.52
42859;BME280;28505;56.970;40.998;2023-08-08T10:56:22;99544.53;;;29.18;48.55
42859;BME280;28505;56.970;40.998;2023-08-08T11:01:46;99545.75;;;29.17;47.92
42859;BME280;28505;56.970;40.998;2023-08-08T11:07:09;99539.44;;;29.33;47.53
42859;BME280;28505;56.970;40.998;2023-08-08T11:12:36;99518.66;;;29.05;47.71
42859;BME280;28505;56.970;40.998;2023-08-08T11:17:59;99528.88;;;29.44;48.34
42859;BME280;28505;56.970;40.998;2023-08-08T11:23:22;99535.16;;;29.65;49.38
42859;BME280;28505;56.970;40.998;2023-08-08T11:28:51;99530.13;;;29.23;47.73
42859;BME280;28505;56.970;40.998;2023-08-08T11:34:15;99530.50;;;29.42;48.66
42859;BME280;28505;56.970;40.998;2023-08-08T11:39:37;99522.19;;;29.05;47.77
42859;BME280;28505;56.970;40.998;2023-08-08T11:44:59;99537.13;;;29.48;48.80
42859;BME280;28505;56.970;40.998;2023-08-08T11:50:24;99530.00;;;29.30;49.28
42859;BME280;28505;56.970;40.998;2023-08-08T11:55:49;99528.22;;;29.20;48.64
42859;BME280;28505;56.970;40.998;2023-08-08T12:01:11;99536.91;;;29.22;48.22
42859;BME280;28505;56.970;40.998;2023-08-08T12:06:40;99523.44;;;29.04;49.54
42859;BME280;28505;56.970;40.998;2023-08-08T12:23:11;99523.00;;;29.22;48.30
42859;BME280;28505;56.970;40.998;2023-08-08T12:28:33;99533.38;;;28.62;50.33
42859;BME280;28505;56.970;40.998;2023-08-08T12:33:56;99524.13;;;28.49;52.00
42859;BME280;28505;56.970;40.998;2023-08-08T12:39:18;99528.09;;;28.87;50.98
42859;BME280;28505;56.970;40.998;2023-08-08T12:44:40;99539.41;;;28.57;50.72
42859;BME280;28505;56.970;40.998;2023-08-08T12:50:06;99533.28;;;28.45;52.64
42859;BME280;28505;56.970;40.998;2023-08-08T12:55:29;99536.34;;;28.71;52.49
42859;BME280;28505;56.970;40.998;2023-08-08T13:00:50;99538.00;;;28.49;53.08
42859;BME280;28505;56.970;40.998;2023-08-08T13:06:13;99535.31;;;28.65;51.54
42859;BME280;28505;56.970;40.998;2023-08-08T13:11:34;99527.91;;;28.78;50.94
42859;BME280;28505;56.970;40.998;2023-08-08T13:16:56;99534.22;;;28.99;51.31
42859;BME280;28505;56.970;40.998;2023-08-08T13:22:18;99529.38;;;28.63;51.77
42859;BME280;28505;56.970;40.998;2023-08-08T13:27:40;99534.44;;;27.77;52.57
42859;BME280;28505;56.970;40.998;2023-08-08T13:33:04;99536.31;;;27.84;52.93
42859;BME280;28505;56.970;40.998;2023-08-08T13:38:26;99534.56;;;27.94;53.71
42859;BME280;28505;56.970;40.998;2023-08-08T13:43:48;99532.53;;;27.98;53.59
42859;BME280;28505;56.970;40.998;2023-08-08T13:49:10;99525.03;;;28.18;54.12
42859;BME280;28505;56.970;40.998;2023-08-08T13:54:32;99529.63;;;28.29;53.34
42859;BME280;28505;56.970;40.998;2023-08-08T13:59:53;99529.44;;;28.39;54.05
42859;BME280;28505;56.970;40.998;2023-08-08T14:05:15;99536.44;;;28.00;53.97
42859;BME280;28505;56.970;40.998;2023-08-08T14:10:37;99526.63;;;28.19;52.94
42859;BME280;28505;56.970;40.998;2023-08-08T14:15:59;99539.06;;;27.30;55.59
42859;BME280;28505;56.970;40.998;2023-08-08T14:21:21;99537.22;;;27.50;55.47
42859;BME280;28505;56.970;40.998;2023-08-08T14:26:45;99535.78;;;27.66;54.81
42859;BME280;28505;56.970;40.998;2023-08-08T14:32:08;99541.19;;;27.49;55.46
42859;BME280;28505;56.970;40.998;2023-08-08T14:37:33;99548.97;;;26.97;57.24
42859;BME280;28505;56.970;40.998;2023-08-08T14:42:55;99552.75;;;27.10;56.97
42859;BME280;28505;56.970;40.998;2023-08-08T14:48:17;99560.41;;;26.65;59.36
42859;BME280;28505;56.970;40.998;2023-08-08T14:53:39;99560.75;;;27.04;57.39
42859;BME280;28505;56.970;40.998;2023-08-08T14:59:01;99559.91;;;26.77;57.30
42859;BME280;28505;56.970;40.998;2023-08-08T15:04:23;99558.09;;;26.94;58.51
42859;BME280;28505;56.970;40.998;2023-08-08T15:09:45;99542.59;;;26.69;58.54
42859;BME280;28505;56.970;40.998;2023-08-08T15:15:07;99546.97;;;26.67;59.46
42859;BME280;28505;56.970;40.998;2023-08-08T15:20:30;99552.69;;;26.52;59.62
42859;BME280;28505;56.970;40.998;2023-08-08T15:25:52;99556.00;;;26.33;62.18
42859;BME280;28505;56.970;40.998;2023-08-08T15:31:14;99561.38;;;26.02;63.16
42859;BME280;28505;56.970;40.998;2023-08-08T15:36:38;99565.53;;;25.73;64.50
42859;BME280;28505;56.970;40.998;2023-08-08T15:42:00;99558.03;;;25.73;63.95
42859;BME280;28505;56.970;40.998;2023-08-08T15:47:22;99559.31;;;25.61;63.53
42859;BME280;28505;56.970;40.998;2023-08-08T15:52:44;99557.50;;;25.37;66.12
42859;BME280;28505;56.970;40.998;2023-08-08T15:58:06;99572.09;;;25.34;64.93
42859;BME280;28505;56.970;40.998;2023-08-08T16:03:31;99578.09;;;25.14;66.75
42859;BME280;28505;56.970;40.998;2023-08-08T16:08:54;99579.03;;;24.75;71.53
42859;BME280;28505;56.970;40.998;2023-08-08T16:14:16;99586.00;;;24.98;68.23
42859;BME280;28505;56.970;40.998;2023-08-08T16:19:39;99590.03;;;24.75;69.82
42859;BME280;28505;56.970;40.998;2023-08-08T16:25:01;99595.94;;;24.70;70.55
42859;BME280;28505;56.970;40.998;2023-08-08T16:30:23;99607.38;;;24.65;70.84
42859;BME280;28505;56.970;40.998;2023-08-08T16:35:45;99601.88;;;24.29;73.84
42859;BME280;28505;56.970;40.998;2023-08-08T16:41:07;99610.53;;;24.32;74.58
42859;BME280;28505;56.970;40.998;2023-08-08T16:46:30;99614.88;;;24.04;77.75
42859;BME280;28505;56.970;40.998;2023-08-08T16:51:52;99610.94;;;23.98;78.21
42859;BME280;28505;56.970;40.998;2023-08-08T16:57:14;99621.13;;;23.79;81.47
42859;BME280;28505;56.970;40.998;2023-08-08T17:02:36;99628.47;;;23.40;91.81
42859;BME280;28505;56.970;40.998;2023-08-08T17:07:58;99630.56;;;23.78;81.58
42859;BME280;28505;56.970;40.998;2023-08-08T17:13:20;99635.53;;;23.41;94.21
42859;BME280;28505;56.970;40.998;2023-08-08T17:18:44;99637.25;;;22.86;100.00
42859;BME280;28505;56.970;40.998;2023-08-08T17:24:06;99642.25;;;22.74;100.00
42859;BME280;28505;56.970;40.998;2023-08-08T17:29:28;99658.63;;;22.59;100.00
42859;BME280;28505;56.970;40.998;2023-08-08T17:34:53;99655.22;;;22.22;100.00
42859;BME280;28505;56.970;40.998;2023-08-08T17:40:14;99649.50;;;22.04;100.00
42859;BME280;28505;56.970;40.998;2023-08-08T17:45:37;99661.94;;;21.90;100.00
42859;BME280;28505;56.970;40.998;2023-08-08T17:50:59;99661.38;;;21.74;100.00
42859;BME280;28505;56.970;40.998;2023-08-08T17:56:21;99660.44;;;21.59;100.00
42859;BME280;28505;56.970;40.998;2023-08-08T18:01:46;99664.59;;;21.46;100.00
42859;BME280;28505;56.970;40.998;2023-08-08T18:07:09;99665.97;;;21.33;100.00
42859;BME280;28505;56.970;40.998;2023-08-08T18:12:30;99668.75;;;21.06;100.00
42859;BME280;28505;56.970;40.998;2023-08-08T18:17:52;99667.31;;;20.89;100.00
42859;BME280;28505;56.970;40.998;2023-08-08T18:23:14;99662.19;;;20.84;100.00
42859;BME280;28505;56.970;40.998;2023-08-08T18:28:36;99657.97;;;20.64;100.00
42859;BME280;28505;56.970;40.998;2023-08-08T18:34:01;99653.97;;;20.57;100.00
42859;BME280;28505;56.970;40.998;2023-08-08T18:39:24;99668.94;;;20.64;100.00
42859;BME280;28505;56.970;40.998;2023-08-08T18:44:46;99666.69;;;20.73;100.00
42859;BME280;28505;56.970;40.998;2023-08-08T18:50:08;99663.31;;;20.56;100.00
42859;BME280;28505;56.970;40.998;2023-08-08T18:55:30;99672.34;;;20.34;100.00
42859;BME280;28505;56.970;40.998;2023-08-08T19:00:52;99676.59;;;20.54;100.00
42859;BME280;28505;56.970;40.998;2023-08-08T19:06:16;99666.19;;;20.18;100.00
42859;BME280;28505;56.970;40.998;2023-08-08T19:11:38;99678.28;;;20.17;100.00
42859;BME280;28505;56.970;40.998;2023-08-08T19:16:59;99683.88;;;20.24;100.00
42859;BME280;28505;56.970;40.998;2023-08-08T19:22:21;99677.56;;;20.20;100.00
42859;BME280;28505;56.970;40.998;2023-08-08T19:27:43;99687.94;;;20.10;100.00
42859;BME280;28505;56.970;40.998;2023-08-08T19:33:05;99690.16;;;20.24;100.00
42859;BME280;28505;56.970;40.998;2023-08-08T19:38:27;99689.78;;;20.49;100.00
42859;BME280;28505;56.970;40.998;2023-08-08T19:43:49;99687.25;;;20.86;100.00
42859;BME280;28505;56.970;40.998;2023-08-08T19:49:11;99689.16;;;20.82;100.00
42859;BME280;28505;56.970;40.998;2023-08-08T19:54:35;99692.34;;;20.15;100.00
42859;BME280;28505;56.970;40.998;2023-08-08T19:59:58;99691.06;;;20.32;100.00
42859;BME280;28505;56.970;40.998;2023-08-08T20:05:20;99681.75;;;20.14;100.00
42859;BME280;28505;56.970;40.998;2023-08-08T20:10:42;99684.91;;;20.39;100.00
42859;BME280;28505;56.970;40.998;2023-08-08T20:16:04;99678.13;;;20.78;100.00
42859;BME280;28505;56.970;40.998;2023-08-08T20:21:25;99673.25;;;20.91;100.00
42859;BME280;28505;56.970;40.998;2023-08-08T20:26:48;99680.47;;;21.03;100.00
42859;BME280;28505;56.970;40.998;2023-08-08T20:32:10;99679.25;;;21.00;100.00
42859;BME280;28505;56.970;40.998;2023-08-08T20:37:31;99679.56;;;20.95;100.00
42859;BME280;28505;56.970;40.998;2023-08-08T20:42:54;99676.47;;;20.97;100.00
42859;BME280;28505;56.970;40.998;2023-08-08T20:48:17;99674.50;;;20.97;100.00
42859;BME280;28505;56.970;40.998;2023-08-08T20:53:39;99679.66;;;21.02;100.00
42859;BME280;28505;56.970;40.998;2023-08-08T20:59:01;99671.53;;;21.10;100.00
42859;BME280;28505;56.970;40.998;2023-08-08T21:04:23;99687.47;;;21.00;100.00
42859;BME280;28505;56.970;40.998;2023-08-08T21:09:45;99689.88;;;21.05;100.00
42859;BME280;28505;56.970;40.998;2023-08-08T21:15:07;99694.56;;;21.05;100.00
42859;BME280;28505;56.970;40.998;2023-08-08T21:20:29;99699.53;;;20.96;100.00
42859;BME280;28505;56.970;40.998;2023-08-08T21:25:54;99701.38;;;20.88;100.00
42859;BME280;28505;56.970;40.998;2023-08-08T21:31:16;99708.84;;;20.65;100.00
42859;BME280;28505;56.970;40.998;2023-08-08T21:36:39;99705.25;;;20.61;100.00
42859;BME280;28505;56.970;40.998;2023-08-08T21:42:01;99699.94;;;20.48;100.00
42859;BME280;28505;56.970;40.998;2023-08-08T21:47:23;99700.03;;;20.52;100.00
42859;BME280;28505;56.970;40.998;2023-08-08T21:52:47;99691.50;;;20.57;100.00
42859;BME280;28505;56.970;40.998;2023-08-08T21:58:11;99703.19;;;20.54;100.00
42859;BME280;28505;56.970;40.998;2023-08-08T22:03:33;99702.25;;;20.46;100.00
42859;BME280;28505;56.970;40.998;2023-08-08T22:08:55;99699.41;;;20.39;100.00
42859;BME280;28505;56.970;40.998;2023-08-08T22:14:17;99699.63;;;20.30;100.00
42859;BME280;28505;56.970;40.998;2023-08-08T22:19:39;99703.97;;;20.31;100.00
42859;BME280;28505;56.970;40.998;2023-08-08T22:25:01;99720.34;;;20.28;100.00
42859;BME280;28505;56.970;40.998;2023-08-08T22:30:23;99724.63;;;20.29;100.00
42859;BME280;28505;56.970;40.998;2023-08-08T22:35:45;99727.88;;;20.34;100.00
42859;BME280;28505;56.970;40.998;2023-08-08T22:41:07;99720.19;;;20.21;100.00
42859;BME280;28505;56.970;40.998;2023-08-08T22:46:29;99737.88;;;20.27;100.00
42859;BME280;28505;56.970;40.998;2023-08-08T22:51:51;99744.09;;;20.24;100.00
42859;BME280;28505;56.970;40.998;2023-08-08T22:57:13;99750.09;;;20.10;100.00
42859;BME280;28505;56.970;40.998;2023-08-08T23:02:35;99740.97;;;19.83;100.00
42859;BME280;28505;56.970;40.998;2023-08-08T23:07:57;99736.75;;;19.31;100.00
42859;BME280;28505;56.970;40.998;2023-08-08T23:13:20;99747.69;;;19.50;100.00
42859;BME280;28505;56.970;40.998;2023-08-08T23:18:42;99751.69;;;19.17;100.00
42859;BME280;28505;56.970;40.998;2023-08-08T23:24:05;99747.97;;;19.45;100.00
42859;BME280;28505;56.970;40.998;2023-08-08T23:29:27;99735.19;;;19.49;100.00
42859;BME280;28505;56.970;40.998;2023-08-08T23:34:49;99736.69;;;19.47;100.00
42859;BME280;28505;56.970;40.998;2023-08-08T23:40:11;99737.56;;;19.15;100.00
42859;BME280;28505;56.970;40.998;2023-08-08T23:45:34;99733.47;;;18.90;100.00
42859;BME280;28505;56.970;40.998;2023-08-08T23:50:59;99749.38;;;19.20;100.00
42859;BME280;28505;56.970;40.998;2023-08-08T23:56:21;99745.78;;;18.52;100.00
